Time;durP1;ratioP1;P1;durP2;ratioP2;P2;SDS_P1;SDS_P2;PMS_P1;PMS_P2;Temp;Humidity;BMP_temperature;BMP_pressure;BME280_temperature;BME280_humidity;BME280_pressure;Samples;Min_cycle;Max_cycle;Signal;HPM_P1;HPM_P2
2022/05/25 00:00:22;;;;;;;2.05;1.00;;;;;;;11.63;100.00;100292.13;5221181;28;20028;-75
2022/05/25 00:02:54;;;;;;;2.47;1.38;;;;;;;11.65;100.00;100305.16;5212710;28;20057;-73
2022/05/25 00:05:24;;;;;;;2.10;1.15;;;;;;;11.52;100.00;100304.81;5215195;28;20036;-75
2022/05/25 00:07:55;;;;;;;2.45;1.40;;;;;;;11.54;100.00;100297.75;5219621;28;20075;-75
2022/05/25 00:10:25;;;;;;;3.50;1.30;;;;;;;11.70;100.00;100297.94;5219360;28;20079;-75
2022/05/25 00:12:55;;;;;;;2.58;1.10;;;;;;;11.71;100.00;100292.66;5216228;28;20641;-75
2022/05/25 00:15:25;;;;;;;1.33;1.10;;;;;;;11.63;100.00;100294.75;5219247;28;20579;-75
2022/05/25 00:17:56;;;;;;;4.55;1.35;;;;;;;11.83;100.00;100299.09;5220600;28;20052;-75
2022/05/25 00:20:26;;;;;;;1.88;1.10;;;;;;;11.83;100.00;100296.47;5218508;28;20602;-75
2022/05/25 00:22:57;;;;;;;3.92;1.30;;;;;;;11.76;100.00;100295.06;5220142;28;20028;-75
2022/05/25 00:25:33;;;;;;;3.38;1.30;;;;;;;11.69;100.00;100309.34;5221562;28;20044;-74
2022/05/25 00:28:06;;;;;;;1.83;1.33;;;;;;;11.83;100.00;100305.22;5224585;28;20087;-75
2022/05/25 00:30:37;;;;;;;2.50;1.25;;;;;;;11.82;100.00;100308.72;5225047;28;20025;-75
2022/05/25 00:33:08;;;;;;;1.90;1.17;;;;;;;11.50;100.00;100311.03;5224902;28;20021;-74
2022/05/25 00:35:39;;;;;;;1.98;1.10;;;;;;;11.46;100.00;100302.44;5224413;28;20032;-75
2022/05/25 00:38:09;;;;;;;2.17;1.38;;;;;;;11.43;100.00;100310.44;5224056;28;20021;-75
2022/05/25 00:40:43;;;;;;;5.43;1.40;;;;;;;11.50;100.00;100317.13;5224693;28;20036;-75
2022/05/25 00:43:14;;;;;;;2.10;1.10;;;;;;;11.67;100.00;100303.31;5220876;28;20825;-75
2022/05/25 00:45:49;;;;;;;2.30;1.20;;;;;;;11.76;100.00;100302.94;5224184;28;20033;-75
2022/05/25 00:48:27;;;;;;;2.80;1.20;;;;;;;11.79;100.00;100303.63;5223802;28;20063;-75
2022/05/25 00:51:13;;;;;;;2.88;1.10;;;;;;;11.89;100.00;100309.28;5221721;28;20509;-75
2022/05/25 00:53:55;;;;;;;2.70;1.20;;;;;;;11.91;100.00;100313.56;5220351;28;20029;-75
2022/05/25 00:56:27;;;;;;;4.32;1.25;;;;;;;11.97;100.00;100307.19;5223751;28;20457;-75
2022/05/25 00:59:02;;;;;;;2.65;1.30;;;;;;;12.09;100.00;100310.09;5224264;28;20036;-75
2022/05/25 01:01:33;;;;;;;1.92;1.23;;;;;;;12.06;100.00;100318.09;5224024;28;20048;-75
2022/05/25 01:04:03;;;;;;;1.77;1.05;;;;;;;11.98;100.00;100314.13;5224636;28;20033;-75
2022/05/25 01:06:47;;;;;;;2.22;1.10;;;;;;;11.95;100.00;100322.13;5223776;28;20035;-75
2022/05/25 01:09:28;;;;;;;3.53;1.30;;;;;;;11.95;100.00;100322.97;5220564;28;20432;-74
2022/05/25 01:12:46;;;;;;;3.22;1.10;;;;;;;12.03;100.00;100331.34;5223902;28;20372;-75
2022/05/25 01:15:34;;;;;;;4.35;1.10;;;;;;;12.10;100.00;100334.53;5167988;28;20525;-74
2022/05/25 01:18:10;;;;;;;1.75;1.10;;;;;;;12.16;100.00;100334.25;5223390;28;20060;-75
2022/05/25 01:20:45;;;;;;;2.15;1.00;;;;;;;11.85;100.00;100326.94;5219997;28;20075;-75
2022/05/25 01:23:31;;;;;;;2.13;1.00;;;;;;;11.73;100.00;100337.94;5220447;28;20036;-75
2022/05/25 01:26:33;;;;;;;2.08;1.08;;;;;;;11.76;100.00;100329.94;5224256;28;20021;-74
2022/05/25 01:29:18;;;;;;;2.45;1.17;;;;;;;11.87;100.00;100335.56;5222332;28;20512;-75
2022/05/25 01:32:14;;;;;;;1.87;1.20;;;;;;;11.80;100.00;100333.28;5220557;28;20391;-75
2022/05/25 01:34:58;;;;;;;;;;;;;;;11.74;100.00;100344.88;5220263;28;20037;-75
2022/05/25 01:37:52;;;;;;;2.42;1.10;;;;;;;11.66;100.00;100340.88;5222192;28;19916;-75
2022/05/25 01:40:42;;;;;;;3.67;1.00;;;;;;;11.65;100.00;100347.03;5220366;28;20037;-75
2022/05/25 01:43:29;;;;;;;3.45;1.08;;;;;;;11.77;100.00;100343.91;5217820;28;20037;-75
2022/05/25 01:46:09;;;;;;;3.22;1.17;;;;;;;11.85;100.00;100340.03;5223424;28;20501;-75
2022/05/25 01:48:41;;;;;;;2.13;1.08;;;;;;;11.96;100.00;100343.00;5222804;28;20207;-75
2022/05/25 01:51:22;;;;;;;1.35;0.80;;;;;;;12.12;100.00;100346.63;5216193;28;20490;-74
2022/05/25 01:53:57;;;;;;;5.88;1.10;;;;;;;12.00;100.00;100344.56;5224300;28;20119;-75
2022/05/25 01:56:30;;;;;;;1.80;0.98;;;;;;;12.01;100.00;100346.28;5222766;28;20074;-75
2022/05/25 01:59:03;;;;;;;2.95;1.23;;;;;;;11.99;100.00;100348.09;5223113;28;20466;-75
2022/05/25 02:01:34;;;;;;;2.70;1.00;;;;;;;11.96;100.00;100345.59;5223252;28;20083;-75
2022/05/25 02:04:23;;;;;;;2.53;1.08;;;;;;;12.05;100.00;100336.50;5222860;28;20056;-75
2022/05/25 02:07:09;;;;;;;5.35;1.30;;;;;;;12.06;100.00;100354.78;5219083;28;20109;-74
2022/05/25 02:10:17;;;;;;;1.77;0.95;;;;;;;12.07;100.00;100350.38;5223100;28;20394;-75
2022/05/25 02:13:33;;;;;;;2.08;0.93;;;;;;;12.11;100.00;100355.41;5211951;28;20037;-75
2022/05/25 02:16:29;;;;;;;1.55;1.00;;;;;;;12.09;100.00;100353.78;5210657;28;20111;-75
2022/05/25 02:19:24;;;;;;;2.28;1.02;;;;;;;11.96;100.00;100358.69;5220516;28;20060;-75
2022/05/25 02:22:09;;;;;;;2.60;1.13;;;;;;;11.92;100.00;100357.16;5219759;28;20041;-74
2022/05/25 02:24:51;;;;;;;2.23;1.10;;;;;;;11.83;100.00;100354.94;5222787;28;20032;-75
2022/05/25 02:27:28;;;;;;;3.03;0.93;;;;;;;11.80;100.00;100357.69;5219615;28;20397;-75
2022/05/25 02:30:06;;;;;;;4.45;1.17;;;;;;;11.79;100.00;100350.75;5221194;28;20116;-75
2022/05/25 02:33:01;;;;;;;3.70;1.13;;;;;;;11.78;100.00;100356.91;5222261;28;20033;-75
2022/05/25 02:35:34;;;;;;;1.15;1.00;;;;;;;11.74;100.00;100364.94;5221415;28;20045;-75
2022/05/25 02:38:06;;;;;;;2.10;1.10;;;;;;;11.74;100.00;100362.34;5222023;28;20037;-75
2022/05/25 02:40:39;;;;;;;1.50;1.00;;;;;;;11.74;100.00;100355.34;5222611;28;20462;-75
2022/05/25 02:43:10;;;;;;;2.10;1.25;;;;;;;11.83;100.00;100367.19;5221957;28;20033;-75
2022/05/25 02:45:42;;;;;;;5.78;1.27;;;;;;;11.82;100.00;100361.06;5221085;28;20094;-75
2022/05/25 02:48:12;;;;;;;1.83;1.27;;;;;;;11.89;100.00;100373.00;5217637;28;20387;-75
2022/05/25 02:50:42;;;;;;;5.23;1.20;;;;;;;11.90;100.00;100373.84;5218837;28;20031;-75
2022/05/25 02:53:12;;;;;;;1.95;1.10;;;;;;;12.00;100.00;100381.25;5221502;28;20307;-74
2022/05/25 02:55:43;;;;;;;2.43;1.20;;;;;;;12.00;100.00;100386.47;5222273;28;20020;-75
2022/05/25 02:58:13;;;;;;;3.20;1.30;;;;;;;11.90;100.00;100387.78;5221441;28;20278;-75
2022/05/25 03:00:43;;;;;;;4.53;1.10;;;;;;;11.77;100.00;100393.63;5222235;28;20279;-74
2022/05/25 03:03:14;;;;;;;3.20;1.33;;;;;;;11.84;100.00;100392.44;5221619;28;20288;-75
2022/05/25 03:05:44;;;;;;;2.83;1.17;;;;;;;11.58;100.00;100393.56;5221745;28;20091;-75
2022/05/25 03:08:15;;;;;;;4.10;1.20;;;;;;;11.53;100.00;100400.72;5221153;28;20443;-74
2022/05/25 03:10:45;;;;;;;1.50;1.10;;;;;;;11.49;100.00;100393.94;5222352;28;20021;-75
2022/05/25 03:13:15;;;;;;;2.72;1.30;;;;;;;11.41;100.00;100401.25;5221302;28;20124;-75
2022/05/25 03:15:45;;;;;;;2.47;1.20;;;;;;;11.45;100.00;100402.81;5221603;28;20021;-75
2022/05/25 03:18:16;;;;;;;1.70;1.00;;;;;;;11.52;100.00;100404.28;5220668;28;20282;-75
2022/05/25 03:20:47;;;;;;;2.15;1.00;;;;;;;11.60;100.00;100411.84;5218284;28;20283;-75
2022/05/25 03:23:17;;;;;;;2.47;1.20;;;;;;;11.59;100.00;100415.38;5220338;28;20111;-75
2022/05/25 03:25:48;;;;;;;2.30;1.27;;;;;;;11.57;100.00;100412.81;5221440;28;20017;-75
2022/05/25 03:28:19;;;;;;;15.88;6.03;;;;;;;11.46;100.00;100414.97;5220821;28;20041;-74
2022/05/25 03:30:49;;;;;;;1.60;1.20;;;;;;;11.33;100.00;100413.81;5221273;28;20563;-75
2022/05/25 03:33:20;;;;;;;2.13;1.20;;;;;;;11.24;100.00;100416.78;5221121;28;20390;-75
2022/05/25 03:35:50;;;;;;;2.75;1.30;;;;;;;11.26;100.00;100414.94;5219833;28;20367;-74
2022/05/25 03:38:20;;;;;;;1.80;1.15;;;;;;;11.27;100.00;100428.91;5219403;28;20036;-75
2022/05/25 03:40:51;;;;;;;1.50;1.10;;;;;;;11.41;100.00;100419.56;5221268;28;20029;-75
2022/05/25 03:43:21;;;;;;;2.37;1.37;;;;;;;11.32;100.00;100430.41;5217452;28;20070;-75
2022/05/25 03:45:51;;;;;;;2.45;1.30;;;;;;;11.27;100.00;100421.88;5219697;28;20636;-72
2022/05/25 03:48:21;;;;;;;2.47;1.20;;;;;;;11.18;100.00;100430.13;5220425;28;20082;-75
2022/05/25 03:50:52;;;;;;;1.90;1.40;;;;;;;11.08;100.00;100428.78;5220510;28;20032;-74
2022/05/25 03:53:22;;;;;;;2.63;1.40;;;;;;;10.97;100.00;100424.88;5219403;28;20033;-75
2022/05/25 03:55:52;;;;;;;2.22;1.20;;;;;;;10.94;100.00;100430.25;5219837;28;20741;-75
2022/05/25 03:58:23;;;;;;;2.05;1.40;;;;;;;10.99;100.00;100423.06;5219236;28;20035;-75
2022/05/25 04:00:53;;;;;;;2.13;1.35;;;;;;;11.05;100.00;100434.13;5219362;28;20037;-75
2022/05/25 04:03:23;;;;;;;3.92;1.48;;;;;;;10.99;100.00;100435.31;5219654;28;20071;-74
2022/05/25 04:05:53;;;;;;;2.53;1.30;;;;;;;11.06;100.00;100440.19;5219524;28;20032;-75
2022/05/25 04:08:24;;;;;;;3.20;1.30;;;;;;;11.07;100.00;100440.16;5220101;28;20458;-75
2022/05/25 04:10:54;;;;;;;2.43;1.30;;;;;;;11.08;100.00;100434.00;5221036;28;20291;-75
2022/05/25 04:13:25;;;;;;;2.35;1.40;;;;;;;11.25;100.00;100439.41;5228148;28;20861;-75
2022/05/25 04:15:56;;;;;;;2.83;1.50;;;;;;;11.50;100.00;100431.41;5220939;28;20474;-75
2022/05/25 04:18:26;;;;;;;2.78;1.35;;;;;;;11.84;100.00;100432.59;5220181;28;20047;-74
2022/05/25 04:20:56;;;;;;;3.70;1.20;;;;;;;12.09;100.00;100440.22;5220823;28;20268;-75
2022/05/25 04:23:28;;;;;;;2.17;1.20;;;;;;;12.21;100.00;100432.69;5220106;28;20268;-75
2022/05/25 04:25:58;;;;;;;3.58;1.23;;;;;;;12.40;100.00;100432.69;5220644;28;20278;-75
2022/05/25 04:28:28;;;;;;;3.22;1.42;;;;;;;12.66;100.00;100427.94;5220016;28;20483;-75
2022/05/25 04:30:58;;;;;;;2.78;1.13;;;;;;;12.29;100.00;100435.78;5220986;28;20028;-75
2022/05/25 04:33:30;;;;;;;3.30;1.40;;;;;;;12.05;100.00;100436.03;5219929;28;20549;-75
2022/05/25 04:36:01;;;;;;;4.07;1.30;;;;;;;12.32;100.00;100433.03;5220582;28;20025;-75
2022/05/25 04:38:31;;;;;;;2.67;1.27;;;;;;;13.51;100.00;100423.81;5220108;28;20036;-75
2022/05/25 04:41:02;;;;;;;2.38;1.10;;;;;;;15.12;91.85;100424.72;5220810;28;20063;-75
2022/05/25 04:43:32;;;;;;;2.42;1.15;;;;;;;17.53;83.12;100422.88;5217109;28;20289;-75
2022/05/25 04:46:08;;;;;;;1.63;1.02;;;;;;;18.23;82.07;100413.66;5223944;28;20047;-75
2022/05/25 04:48:38;;;;;;;1.27;0.90;;;;;;;18.72;76.42;100422.50;5219888;28;20029;-75
2022/05/25 04:51:09;;;;;;;1.60;1.00;;;;;;;18.62;74.45;100424.97;5220505;28;20025;-76
2022/05/25 04:53:40;;;;;;;2.33;0.90;;;;;;;19.91;70.69;100420.59;5221916;28;20279;-75
2022/05/25 04:58:59;;;;;;;2.13;0.90;;;;;;;22.78;61.81;100410.72;5218875;28;20040;-73
2022/05/25 05:01:30;;;;;;;2.57;0.93;;;;;;;22.05;61.94;100421.69;5220306;28;20029;-76
2022/05/25 05:04:01;;;;;;;1.98;0.90;;;;;;;21.75;63.89;100429.56;5219597;28;20085;-76
2022/05/25 05:06:31;;;;;;;4.47;1.00;;;;;;;23.18;61.71;100418.69;5218356;28;20029;-74
2022/05/25 05:09:06;;;;;;;2.73;0.87;;;;;;;23.30;59.76;100429.09;5219291;28;20333;-76
2022/05/25 05:11:37;;;;;;;2.15;0.80;;;;;;;24.70;58.98;100419.38;5222075;28;20489;-76
2022/05/25 05:14:07;;;;;;;2.28;1.00;;;;;;;24.25;59.28;100423.72;5223347;28;20028;-75
2022/05/25 05:16:37;;;;;;;3.97;1.00;;;;;;;24.79;57.04;100426.53;5223102;28;20025;-75
2022/05/25 05:19:08;;;;;;;1.30;0.90;;;;;;;26.79;54.02;100419.31;5223924;28;20041;-76
2022/05/25 05:21:38;;;;;;;2.42;0.90;;;;;;;27.36;52.01;100413.16;5221925;28;20528;-76
2022/05/25 05:24:08;;;;;;;2.00;1.10;;;;;;;25.74;55.05;100423.22;5223693;28;20037;-75
2022/05/25 05:26:39;;;;;;;2.07;1.20;;;;;;;27.66;51.82;100425.13;5222272;28;20077;-75
2022/05/25 05:29:09;;;;;;;2.23;1.27;;;;;;;26.85;53.20;100432.09;5224053;28;20040;-75
2022/05/25 05:31:39;;;;;;;3.15;1.33;;;;;;;25.76;54.69;100435.50;5224250;28;20031;-75
2022/05/25 05:34:10;;;;;;;2.13;1.23;;;;;;;27.98;51.17;100435.91;5223938;28;20033;-75
2022/05/25 05:36:44;;;;;;;4.55;1.58;;;;;;;27.47;50.19;100439.69;5223545;28;20501;-75
2022/05/25 05:39:16;;;;;;;4.57;1.60;;;;;;;26.01;53.51;100441.94;5220133;28;20409;-75
2022/05/25 05:41:53;;;;;;;4.03;2.10;;;;;;;24.48;56.34;100441.13;5223971;28;20128;-75
2022/05/25 05:44:32;;;;;;;3.38;1.73;;;;;;;26.06;53.75;100444.97;5223215;28;20049;-75
2022/05/25 05:47:07;;;;;;;4.18;1.90;;;;;;;24.61;55.31;100447.03;5222983;28;20029;-75
2022/05/25 05:49:39;;;;;;;3.28;1.83;;;;;;;25.00;56.04;100456.56;5223174;28;20028;-75
2022/05/25 05:52:09;;;;;;;4.03;2.10;;;;;;;24.41;57.09;100452.53;5221039;28;20087;-73
2022/05/25 05:54:41;;;;;;;3.05;1.83;;;;;;;25.04;54.73;100460.59;5223313;28;20478;-75
2022/05/25 05:57:13;;;;;;;3.35;1.80;;;;;;;23.73;57.20;100453.56;5215611;28;20048;-75
2022/05/25 05:59:44;;;;;;;4.18;2.05;;;;;;;23.11;58.74;100450.41;5222231;28;20064;-75
2022/05/25 06:02:14;;;;;;;4.50;2.30;;;;;;;22.36;61.47;100461.53;5221769;28;20029;-74
2022/05/25 06:04:45;;;;;;;5.10;2.67;;;;;;;21.43;62.83;100465.94;5222357;28;20047;-75
2022/05/25 06:07:15;;;;;;;3.67;2.58;;;;;;;20.54;65.83;100472.28;5221254;28;20276;-75
2022/05/25 06:09:45;;;;;;;4.60;2.65;;;;;;;20.22;65.94;100481.91;5221631;28;20029;-75
2022/05/25 06:12:16;;;;;;;4.40;2.83;;;;;;;19.95;66.01;100475.97;5222563;28;20027;-75
2022/05/25 06:14:46;;;;;;;6.28;2.80;;;;;;;20.63;65.44;100474.22;5222787;28;20136;-75
2022/05/25 06:20:05;;;;;;;4.55;2.78;;;;;;;20.50;66.13;100478.78;5224444;28;20290;-74
2022/05/25 06:22:36;;;;;;;3.83;2.58;;;;;;;20.65;65.21;100484.72;5227233;28;20028;-75
2022/05/25 06:25:07;;;;;;;4.03;2.60;;;;;;;20.66;65.08;100487.25;5227777;28;20029;-75
2022/05/25 06:27:38;;;;;;;7.97;2.72;;;;;;;20.66;66.14;100481.09;5230022;28;20024;-75
2022/05/25 06:30:09;;;;;;;4.10;2.60;;;;;;;20.83;65.68;100481.47;5222408;28;20037;-75
2022/05/25 06:32:39;;;;;;;6.38;2.83;;;;;;;20.16;67.97;100492.97;5222527;28;20032;-74
2022/05/25 06:35:10;;;;;;;5.33;3.10;;;;;;;20.97;65.54;100484.75;5220008;28;20120;-75
2022/05/25 06:37:40;;;;;;;6.82;2.95;;;;;;;20.43;67.19;100496.16;5221460;28;20286;-75
2022/05/25 06:40:11;;;;;;;8.37;2.80;;;;;;;21.04;65.38;100487.78;5218079;28;20037;-74
2022/05/25 06:42:41;;;;;;;4.85;2.92;;;;;;;21.87;63.97;100479.94;5222657;28;20333;-75
2022/05/25 06:45:12;;;;;;;6.07;2.83;;;;;;;22.49;62.54;100488.84;5221793;28;20048;-76
2022/05/25 06:47:42;;;;;;;4.33;2.63;;;;;;;22.07;63.57;100488.94;5222655;28;20036;-75
2022/05/25 06:50:13;;;;;;;4.20;2.70;;;;;;;22.82;62.39;100484.09;5222279;28;20291;-74
2022/05/25 06:52:43;;;;;;;4.80;2.85;;;;;;;22.33;63.02;100488.44;5220258;28;20032;-75
2022/05/25 06:55:13;;;;;;;4.25;2.80;;;;;;;22.49;62.25;100499.50;5221966;28;20460;-75
2022/05/25 06:57:44;;;;;;;4.87;2.90;;;;;;;22.79;61.40;100497.69;5220496;28;20486;-75
2022/05/25 07:00:14;;;;;;;5.65;3.45;;;;;;;22.31;61.54;100500.19;5221733;28;20520;-75
2022/05/25 07:02:45;;;;;;;6.53;3.58;;;;;;;23.42;59.40;100496.53;5222253;28;20033;-75
2022/05/25 07:05:15;;;;;;;4.77;3.60;;;;;;;22.99;59.71;100495.94;5222140;28;20112;-75
2022/05/25 07:07:45;;;;;;;5.97;3.80;;;;;;;22.32;61.71;100497.41;5224522;28;20336;-76
2022/05/25 07:10:15;;;;;;;5.20;3.60;;;;;;;22.94;61.91;100499.00;5221388;28;20032;-75
2022/05/25 07:12:46;;;;;;;8.03;4.00;;;;;;;22.48;63.11;100512.94;5226900;28;20038;-75
2022/05/25 07:15:16;;;;;;;6.85;4.18;;;;;;;22.26;62.46;100505.06;5222525;28;20059;-75
2022/05/25 07:17:48;;;;;;;7.93;5.07;;;;;;;23.04;60.26;100504.38;5229003;28;20035;-75
2022/05/25 07:20:18;;;;;;;7.80;4.55;;;;;;;23.77;59.05;100505.72;5225741;28;20036;-75
2022/05/25 07:22:49;;;;;;;5.55;3.90;;;;;;;22.44;60.70;100506.19;5227498;28;20410;-75
2022/05/25 07:25:19;;;;;;;9.17;4.33;;;;;;;23.61;59.86;100502.75;5225638;28;20482;-75
2022/05/25 07:27:49;;;;;;;6.75;4.32;;;;;;;23.38;59.57;100511.13;5225747;28;20598;-76
2022/05/25 07:30:20;;;;;;;7.82;3.97;;;;;;;24.01;59.24;100510.66;5220203;28;20079;-75
2022/05/25 07:32:50;;;;;;;6.15;3.22;;;;;;;24.86;57.08;100515.88;5221547;28;20028;-75
2022/05/25 07:35:21;;;;;;;5.80;2.93;;;;;;;23.02;59.35;100515.16;5220893;28;20382;-75
2022/05/25 07:37:54;;;;;;;4.57;3.00;;;;;;;23.18;60.55;100515.53;5221673;28;20642;-75
2022/05/25 07:40:31;;;;;;;3.40;2.35;;;;;;;22.59;59.50;100531.53;5221333;28;20049;-75
2022/05/25 07:43:07;;;;;;;4.65;2.60;;;;;;;23.35;58.01;100522.91;5218643;28;20028;-76
2022/05/25 07:45:37;;;;;;;4.13;2.65;;;;;;;22.18;61.20;100527.00;5222905;28;20017;-75
2022/05/25 07:48:08;;;;;;;4.60;2.90;;;;;;;22.13;62.05;100533.69;5220950;28;20619;-74
2022/05/25 07:50:39;;;;;;;4.85;2.67;;;;;;;22.54;60.98;100528.38;5221444;28;20263;-75
2022/05/25 07:56:05;;;;;;;4.22;1.92;;;;;;;24.73;56.32;100523.38;5220368;28;20094;-75
2022/05/25 07:58:35;;;;;;;4.10;2.00;;;;;;;26.16;53.72;100526.13;5220462;28;20036;-75
2022/05/25 08:01:11;;;;;;;4.23;2.03;;;;;;;26.45;53.07;100521.31;5221420;28;20478;-76
2022/05/25 08:06:31;;;;;;;5.13;1.70;;;;;;;25.80;54.88;100532.44;5221757;28;19989;-73
2022/05/25 08:09:01;;;;;;;3.10;1.50;;;;;;;25.99;52.99;100526.97;5221200;28;20474;-75
2022/05/25 08:11:34;;;;;;;3.67;1.55;;;;;;;24.04;56.67;100540.59;5221264;28;20298;-74
2022/05/25 08:14:04;;;;;;;3.88;1.63;;;;;;;25.60;54.32;100529.06;5216250;28;20037;-76
2022/05/25 08:16:35;;;;;;;2.28;1.30;;;;;;;24.94;52.84;100530.19;5220218;28;20486;-73
2022/05/25 08:19:05;;;;;;;2.55;1.20;;;;;;;24.44;54.35;100530.59;5219734;28;20413;-74
2022/05/25 08:21:35;;;;;;;1.93;1.20;;;;;;;26.00;52.30;100536.69;5220327;28;20032;-75
2022/05/25 08:24:06;;;;;;;2.10;0.90;;;;;;;26.59;50.38;100528.81;5221119;28;20067;-75
2022/05/25 08:26:36;;;;;;;2.33;1.10;;;;;;;27.44;49.47;100523.25;5220019;28;20660;-75
2022/05/25 08:29:07;;;;;;;2.75;1.25;;;;;;;28.22;49.26;100520.09;5220880;28;20198;-75
2022/05/25 08:31:38;;;;;;;2.63;1.00;;;;;;;26.74;51.58;100531.63;5221042;28;20025;-75
2022/05/25 08:34:08;;;;;;;1.50;1.08;;;;;;;26.83;49.83;100532.50;5220985;28;20039;-75
2022/05/25 08:36:38;;;;;;;2.10;1.00;;;;;;;25.86;52.23;100539.91;5220145;28;20036;-75
2022/05/25 08:39:09;;;;;;;1.60;1.10;;;;;;;24.45;52.14;100548.31;5220502;28;20025;-75
2022/05/25 08:41:40;;;;;;;4.07;1.50;;;;;;;22.92;54.81;100546.28;5220189;28;20314;-75
2022/05/25 08:44:11;;;;;;;3.78;1.20;;;;;;;23.62;53.74;100533.78;5217040;28;20095;-75
2022/05/25 08:46:42;;;;;;;2.53;1.00;;;;;;;24.40;53.88;100525.66;5216254;28;20562;-75
2022/05/25 08:49:15;;;;;;;3.63;1.60;;;;;;;24.55;52.08;100532.28;5224941;28;20116;-75
2022/05/25 08:51:49;;;;;;;2.22;1.00;;;;;;;23.21;55.20;100523.28;5223331;28;20086;-75
2022/05/25 08:54:21;;;;;;;2.33;0.93;;;;;;;24.82;52.76;100526.00;5223807;28;20071;-75
2022/05/25 08:57:09;;;;;;;1.65;0.90;;;;;;;24.90;52.16;100526.13;5223912;28;20024;-75
2022/05/25 08:59:49;;;;;;;2.30;1.10;;;;;;;22.94;56.10;100525.69;5224496;28;20311;-75
2022/05/25 09:02:36;;;;;;;2.70;0.98;;;;;;;24.30;54.69;100519.47;5221029;28;20025;-75
2022/05/25 09:05:17;;;;;;;2.88;0.80;;;;;;;24.99;52.30;100522.56;5222511;28;20021;-74
2022/05/25 09:08:12;;;;;;;2.85;0.93;;;;;;;23.75;54.04;100523.69;5220401;28;20502;-75
2022/05/25 09:10:48;;;;;;;2.05;0.90;;;;;;;24.16;54.28;100523.44;5220262;28;20025;-75
2022/05/25 09:13:37;;;;;;;3.83;1.00;;;;;;;24.94;52.83;100518.69;5223547;28;20032;-75
2022/05/25 09:16:16;;;;;;;2.03;0.90;;;;;;;26.44;51.03;100520.50;5224238;28;20029;-74
2022/05/25 09:18:54;;;;;;;2.15;0.90;;;;;;;24.94;52.67;100524.84;5221389;28;20653;-74
2022/05/25 09:21:29;;;;;;;1.60;0.70;;;;;;;24.06;53.15;100535.94;5223945;28;20064;-74
2022/05/25 09:24:08;;;;;;;2.75;0.88;;;;;;;23.14;55.66;100542.63;5222574;28;20069;-74
2022/05/25 09:26:38;;;;;;;2.40;0.90;;;;;;;23.61;54.94;100536.56;5223397;28;20029;-75
2022/05/25 09:29:10;;;;;;;1.38;0.77;;;;;;;23.04;56.70;100531.88;5224280;28;20044;-75
2022/05/25 09:31:46;;;;;;;1.40;0.60;;;;;;;22.51;57.32;100526.84;5219596;28;20482;-75
2022/05/25 09:34:31;;;;;;;;;;;;;;;21.08;60.71;100539.72;5222705;28;20044;-75
2022/05/25 09:37:10;;;;;;;1.80;0.70;;;;;;;22.70;58.33;100530.44;5222568;28;20015;-75
2022/05/25 09:39:44;;;;;;;2.45;0.70;;;;;;;23.16;56.16;100527.34;5219375;28;20021;-75
2022/05/25 09:42:19;;;;;;;1.75;0.65;;;;;;;23.63;57.09;100524.78;5223880;28;20082;-75
2022/05/25 09:44:52;;;;;;;2.40;0.70;;;;;;;25.02;54.18;100521.44;5219682;28;20425;-76
2022/05/25 09:47:27;;;;;;;1.75;0.63;;;;;;;24.38;53.63;100520.47;5223078;28;20037;-76
2022/05/25 09:49:59;;;;;;;1.67;0.77;;;;;;;25.76;50.62;100517.66;5223282;28;20021;-76
2022/05/25 09:52:43;;;;;;;1.63;0.70;;;;;;;26.15;50.79;100516.41;5222768;28;20029;-76
2022/05/25 09:55:24;;;;;;;1.98;0.80;;;;;;;26.74;50.32;100502.09;5220127;28;20119;-75
2022/05/25 09:58:01;;;;;;;0.80;0.40;;;;;;;24.10;53.72;100521.34;5220957;28;20063;-76
2022/05/25 10:00:35;;;;;;;1.65;0.80;;;;;;;23.74;54.39;100523.81;5222926;28;20025;-76
2022/05/25 10:03:10;;;;;;;2.10;0.95;;;;;;;23.63;54.58;100535.47;5221725;28;20029;-75
2022/05/25 10:05:52;;;;;;;1.63;0.93;;;;;;;23.98;54.60;100518.94;5223402;28;20395;-76
2022/05/25 10:08:39;;;;;;;1.92;0.70;;;;;;;24.18;55.45;100515.31;5219909;28;20045;-76
2022/05/25 10:11:28;;;;;;;2.40;0.80;;;;;;;25.22;54.12;100512.38;5222809;28;20036;-75
2022/05/25 10:14:25;;;;;;;3.00;1.02;;;;;;;24.42;54.35;100510.34;5216530;28;20085;-75
2022/05/25 10:17:28;;;;;;;3.05;1.02;;;;;;;23.70;53.99;100507.22;5222923;28;20021;-75
2022/05/25 10:19:59;;;;;;;1.80;1.00;;;;;;;23.36;56.80;100503.25;5221092;28;20119;-75
2022/05/25 10:22:41;;;;;;;2.58;0.85;;;;;;;22.31;57.09;100511.69;5222458;28;20124;-75
2022/05/25 10:25:34;;;;;;;2.17;0.60;;;;;;;21.55;60.64;100507.50;5222668;28;20393;-75
2022/05/25 10:28:18;;;;;;;3.83;0.95;;;;;;;21.55;59.65;100515.50;5221225;28;20036;-75
2022/05/25 10:37:06;;;;;;;1.63;0.70;;;;;;;23.00;57.18;100509.13;5186639;28;20568;-74
2022/05/25 10:39:41;;;;;;;3.70;0.70;;;;;;;22.36;58.18;100505.94;5216213;28;20037;-75
2022/05/25 10:42:19;;;;;;;2.88;0.70;;;;;;;21.70;57.66;100508.91;5222735;28;20398;-75
2022/05/25 10:45:20;;;;;;;1.98;0.70;;;;;;;22.14;59.46;100500.75;5215868;28;20029;-75
2022/05/25 10:47:51;;;;;;;1.73;0.60;;;;;;;22.46;56.08;100505.06;5217903;28;20087;-75
2022/05/25 10:50:45;;;;;;;0.80;0.60;;;;;;;22.94;56.14;100488.34;5222323;28;20025;-75
2022/05/25 10:53:41;;;;;;;1.25;0.60;;;;;;;22.92;57.90;100490.31;5215069;28;20029;-74
2022/05/25 10:56:27;;;;;;;2.97;0.70;;;;;;;23.13;57.47;100485.78;5218821;28;20175;-74
2022/05/25 10:59:21;;;;;;;4.28;0.77;;;;;;;23.30;53.86;100482.47;5222295;28;20124;-75
2022/05/25 11:02:01;;;;;;;1.90;0.68;;;;;;;23.05;54.55;100490.91;5219598;28;20020;-75
2022/05/25 11:04:59;;;;;;;2.05;0.80;;;;;;;22.97;53.40;100498.75;5222095;28;20274;-75
2022/05/25 11:07:40;;;;;;;1.88;0.70;;;;;;;22.60;54.42;100502.06;5220227;28;20041;-76
2022/05/25 11:10:32;;;;;;;2.80;0.65;;;;;;;22.05;55.17;100504.22;5221335;28;20455;-74
2022/05/25 11:13:24;;;;;;;1.20;0.50;;;;;;;22.28;55.17;100503.94;5218643;28;20049;-75
2022/05/25 11:15:57;;;;;;;2.08;0.70;;;;;;;21.91;53.33;100509.84;5219005;28;20036;-76
2022/05/25 11:18:56;;;;;;;1.38;0.60;;;;;;;21.96;55.19;100504.97;5221148;28;20043;-75
2022/05/25 11:21:51;;;;;;;2.97;0.95;;;;;;;21.72;56.73;100504.34;5221212;28;20033;-75
2022/05/25 11:24:45;;;;;;;1.40;0.70;;;;;;;21.99;56.10;100499.38;5218877;28;20025;-75
2022/05/25 11:27:45;;;;;;;1.83;0.77;;;;;;;21.93;55.87;100495.41;5217889;28;20028;-75
2022/05/25 11:30:40;;;;;;;2.38;0.77;;;;;;;22.23;56.49;100494.66;5218128;28;20485;-75
2022/05/25 11:33:28;;;;;;;1.08;0.70;;;;;;;22.65;55.88;100494.53;5221853;28;20120;-75
2022/05/25 11:36:28;;;;;;;2.20;0.80;;;;;;;23.13;56.67;100483.13;5219819;28;20029;-75
2022/05/25 11:39:36;;;;;;;1.30;0.88;;;;;;;23.18;53.41;100478.19;5219409;28;20027;-75
2022/05/25 11:42:25;;;;;;;3.42;0.55;;;;;;;23.44;52.37;100482.06;5215719;28;20045;-74
2022/05/25 11:45:07;;;;;;;2.17;0.60;;;;;;;23.20;53.32;100478.91;5216355;28;20035;-75
2022/05/25 11:47:51;;;;;;;1.50;0.57;;;;;;;23.39;52.16;100480.78;5220685;28;20436;-72
2022/05/25 11:50:31;;;;;;;1.00;0.57;;;;;;;23.61;52.83;100480.53;5218631;28;20091;-75
2022/05/25 11:53:31;;;;;;;0.60;0.50;;;;;;;23.69;53.99;100484.19;5219245;28;20544;-75
2022/05/25 11:56:17;;;;;;;2.55;0.50;;;;;;;23.01;52.48;100484.16;5218741;28;20060;-75
2022/05/25 11:59:32;;;;;;;2.22;0.60;;;;;;;22.93;53.29;100476.00;5218125;28;20382;-75
2022/05/25 12:02:21;;;;;;;1.45;0.68;;;;;;;22.77;53.73;100478.31;5220073;28;20036;-75
2022/05/25 12:05:25;;;;;;;0.80;0.43;;;;;;;22.99;52.51;100477.28;5218792;28;20056;-75
2022/05/25 12:08:17;;;;;;;2.15;0.55;;;;;;;22.65;52.20;100467.88;5218805;28;20251;-75
2022/05/25 12:11:03;;;;;;;0.68;0.40;;;;;;;22.59;52.02;100467.56;5218771;28;20021;-74
2022/05/25 12:13:43;;;;;;;1.23;0.45;;;;;;;22.91;51.76;100464.63;5218084;28;20025;-75
2022/05/25 12:16:19;;;;;;;1.40;0.50;;;;;;;23.11;51.72;100455.75;5217923;28;20371;-74
2022/05/25 12:19:02;;;;;;;1.33;0.40;;;;;;;22.78;52.44;100466.69;5220888;28;20151;-75
2022/05/25 12:21:38;;;;;;;0.85;0.38;;;;;;;22.77;52.42;100464.13;5219553;28;20078;-75